Time;durP1;ratioP1;P1;durP2;ratioP2;P2;SDS_P1;SDS_P2;PMS_P1;PMS_P2;Temp;Humidity;BMP_temperature;BMP_pressure;BME280_temperature;BME280_humidity;BME280_pressure;Samples;Min_cycle;Max_cycle;Signal;HPM_P1;HPM_P2
2021/11/22 00:01:02;;;;;;;1.02;0.43;;;21.80;37.40;;;;;;5033577;28;20469;-50
2021/11/22 00:03:29;;;;;;;1.55;0.50;;;21.80;37.40;;;;;;5018777;28;20037;-48
2021/11/22 00:05:55;;;;;;;0.52;0.50;;;21.80;37.40;;;;;;5014943;28;20404;-51
2021/11/22 00:08:22;;;;;;;0.60;0.40;;;21.70;37.30;;;;;;5024923;28;20048;-53
2021/11/22 00:10:48;;;;;;;0.75;0.40;;;21.70;37.30;;;;;;5015103;28;20036;-50
2021/11/22 00:13:14;;;;;;;0.88;0.47;;;21.70;37.30;;;;;;5014198;28;20030;-50
2021/11/22 00:15:40;;;;;;;1.80;0.50;;;21.70;37.20;;;;;;5020555;28;20087;-47
2021/11/22 00:18:06;;;;;;;1.38;0.60;;;21.70;37.20;;;;;;5028187;28;20040;-48
2021/11/22 00:20:34;;;;;;;1.08;0.38;;;21.70;37.20;;;;;;5031948;28;20040;-53
2021/11/22 00:23:00;;;;;;;1.08;0.50;;;21.70;37.20;;;;;;5032933;28;20036;-46
2021/11/22 00:25:26;;;;;;;0.80;0.40;;;21.70;37.20;;;;;;5027254;28;20045;-48
2021/11/22 00:27:52;;;;;;;1.10;0.47;;;21.70;37.20;;;;;;5025813;28;20061;-46
2021/11/22 00:30:36;;;;;;;1.45;0.50;;;21.70;37.20;;;;;;5032705;28;20038;-49
2021/11/22 00:33:05;;;;;;;1.75;0.60;;;21.70;37.20;;;;;;5017597;28;20022;-46
2021/11/22 00:35:50;;;;;;;0.82;0.45;;;21.70;37.20;;;;;;5014567;28;20137;-51
2021/11/22 00:38:16;;;;;;;1.30;0.60;;;21.70;37.10;;;;;;5022251;28;20113;-46
2021/11/22 00:40:43;;;;;;;0.85;0.38;;;21.70;37.10;;;;;;5016011;28;20041;-48
2021/11/22 00:43:10;;;;;;;1.25;0.50;;;21.60;37.00;;;;;;5015367;28;20030;-51
2021/11/22 00:45:36;;;;;;;1.33;0.50;;;21.70;37.10;;;;;;5024701;28;20045;-48
2021/11/22 00:48:02;;;;;;;0.70;0.40;;;21.60;37.00;;;;;;5014766;28;20425;-51
2021/11/22 00:50:29;;;;;;;1.40;0.40;;;21.60;37.00;;;;;;5016407;28;20069;-45
2021/11/22 00:52:56;;;;;;;0.47;0.35;;;21.60;37.00;;;;;;5033497;28;20040;-45
2021/11/22 00:55:22;;;;;;;0.93;0.40;;;21.60;37.00;;;;;;5032098;28;20065;-50
2021/11/22 00:57:48;;;;;;;1.10;0.50;;;21.60;37.00;;;;;;5025448;28;20080;-47
2021/11/22 01:00:16;;;;;;;0.80;0.55;;;21.60;36.90;;;;;;5030327;28;20060;-46
2021/11/22 01:02:42;;;;;;;0.90;0.40;;;21.60;37.60;;;;;;5019822;28;20038;-46
2021/11/22 01:05:08;;;;;;;0.60;0.30;;;21.60;37.00;;;;;;5026059;28;20036;-51
2021/11/22 01:07:34;;;;;;;0.77;0.40;;;21.60;37.00;;;;;;5031097;28;20116;-44
2021/11/22 01:10:01;;;;;;;0.93;0.38;;;21.60;37.00;;;;;;5020946;28;20121;-50
2021/11/22 01:12:30;;;;;;;0.30;0.30;;;21.60;37.00;;;;;;5033761;28;20365;-46
2021/11/22 01:14:58;;;;;;;0.95;0.35;;;21.60;37.00;;;;;;5027503;28;20022;-49
2021/11/22 01:17:24;;;;;;;1.63;0.50;;;21.60;36.90;;;;;;5034593;28;20095;-47
2021/11/22 01:19:53;;;;;;;0.77;0.40;;;21.60;36.90;;;;;;5022646;28;20025;-47
2021/11/22 01:22:25;;;;;;;0.85;0.40;;;21.60;36.90;;;;;;5019905;28;20029;-48
2021/11/22 01:24:52;;;;;;;0.95;0.40;;;21.60;36.90;;;;;;5023674;28;20033;-46
2021/11/22 01:27:20;;;;;;;1.42;0.30;;;21.50;36.80;;;;;;5019515;28;20372;-47
2021/11/22 01:29:46;;;;;;;1.08;0.45;;;21.50;36.80;;;;;;5025178;28;20029;-50
2021/11/22 01:32:11;;;;;;;2.25;0.35;;;21.60;36.80;;;;;;5034536;28;20033;-50
2021/11/22 01:34:37;;;;;;;0.47;0.30;;;21.50;36.80;;;;;;5023935;28;20442;-49
2021/11/22 01:37:03;;;;;;;0.70;0.40;;;21.50;36.80;;;;;;5024901;28;20083;-51
2021/11/22 01:39:29;;;;;;;0.73;0.45;;;21.50;36.80;;;;;;5030583;28;20030;-51
2021/11/22 01:41:55;;;;;;;0.90;0.43;;;21.50;36.70;;;;;;5017420;28;20060;-48
2021/11/22 01:44:21;;;;;;;0.90;0.40;;;21.50;36.70;;;;;;5029798;28;20029;-54
2021/11/22 01:46:48;;;;;;;0.60;0.30;;;21.50;36.70;;;;;;5019225;28;20038;-51
2021/11/22 01:49:18;;;;;;;0.40;0.30;;;21.50;36.70;;;;;;5028748;28;20091;-54
2021/11/22 01:51:44;;;;;;;0.22;0.22;;;21.50;36.70;;;;;;5027090;28;20112;-53
2021/11/22 01:54:12;;;;;;;0.80;0.30;;;21.50;36.70;;;;;;5035606;28;20040;-47
2021/11/22 01:56:40;;;;;;;1.17;0.35;;;21.50;37.30;;;;;;5020997;28;20046;-54
2021/11/22 01:59:06;;;;;;;0.52;0.40;;;21.50;36.70;;;;;;5017155;28;20075;-48
2021/11/22 02:01:32;;;;;;;0.75;0.35;;;21.50;37.30;;;;;;5031926;28;20030;-51
2021/11/22 02:03:58;;;;;;;0.52;0.30;;;21.40;36.60;;;;;;5035544;28;20033;-49
2021/11/22 02:06:24;;;;;;;0.47;0.30;;;21.40;36.60;;;;;;5028899;28;20034;-55
2021/11/22 02:08:50;;;;;;;0.95;0.40;;;21.40;36.60;;;;;;5034000;28;20037;-49
2021/11/22 02:11:17;;;;;;;0.70;0.50;;;21.40;36.60;;;;;;5024345;28;20030;-49
2021/11/22 02:13:43;;;;;;;0.90;0.40;;;21.40;36.50;;;;;;5017154;28;20034;-48
2021/11/22 02:16:09;;;;;;;0.95;0.45;;;21.40;37.20;;;;;;5028645;28;20091;-47
2021/11/22 02:18:35;;;;;;;0.40;0.30;;;21.40;36.50;;;;;;5034825;28;20044;-50
2021/11/22 02:21:01;;;;;;;1.27;0.35;;;21.40;36.50;;;;;;5033419;28;20033;-50
2021/11/22 02:23:27;;;;;;;0.88;0.32;;;21.40;36.50;;;;;;5035209;28;20429;-50
2021/11/22 02:25:52;;;;;;;0.63;0.35;;;21.40;36.50;;;;;;5020998;28;20030;-45
2021/11/22 02:28:19;;;;;;;1.23;0.40;;;21.40;36.40;;;;;;5036410;28;20103;-49
2021/11/22 02:30:47;;;;;;;1.08;0.30;;;21.40;36.40;;;;;;5026114;28;20433;-52
2021/11/22 02:33:19;;;;;;;0.20;0.20;;;21.40;36.40;;;;;;5026836;28;20100;-48
2021/11/22 02:35:49;;;;;;;0.93;0.32;;;21.40;36.40;;;;;;5016359;28;20038;-49
2021/11/22 02:38:20;;;;;;;1.23;0.30;;;21.40;36.40;;;;;;5027424;28;20095;-53
2021/11/22 02:40:46;;;;;;;0.60;0.32;;;21.30;36.40;;;;;;5027209;28;20112;-50
2021/11/22 02:43:12;;;;;;;0.50;0.45;;;21.40;36.40;;;;;;5036010;28;20029;-49
2021/11/22 02:45:38;;;;;;;0.98;0.30;;;21.30;36.30;;;;;;5030956;28;20061;-51
2021/11/22 02:48:04;;;;;;;1.05;0.40;;;21.30;36.30;;;;;;5034990;28;20080;-48
2021/11/22 02:50:30;;;;;;;0.60;0.22;;;21.30;36.30;;;;;;5028407;28;20037;-51
2021/11/22 02:52:56;;;;;;;1.10;0.35;;;21.30;36.20;;;;;;5017323;28;20072;-48
2021/11/22 02:55:22;;;;;;;0.63;0.32;;;21.30;36.20;;;;;;5021473;28;20033;-48
2021/11/22 02:57:49;;;;;;;1.02;0.28;;;21.30;36.20;;;;;;5035994;28;20045;-48
2021/11/22 03:00:36;;;;;;;0.60;0.28;;;21.30;36.20;;;;;;5027689;28;20353;-48
2021/11/22 03:03:02;;;;;;;0.50;0.30;;;21.30;36.10;;;;;;5015332;28;20037;-48
2021/11/22 03:05:28;;;;;;;0.65;0.30;;;21.30;36.30;;;;;;5026844;28;20112;-49
2021/11/22 03:07:56;;;;;;;0.90;0.30;;;21.30;36.30;;;;;;5030329;28;20165;-48
2021/11/22 03:10:23;;;;;;;0.30;0.20;;;21.30;36.20;;;;;;5023935;28;20052;-46
2021/11/22 03:12:50;;;;;;;0.82;0.32;;;21.30;36.20;;;;;;5034228;28;20453;-47
2021/11/22 03:15:18;;;;;;;0.82;0.30;;;21.30;36.20;;;;;;5030303;28;20029;-51
2021/11/22 03:17:45;;;;;;;0.45;0.30;;;21.30;36.20;;;;;;5028082;28;20117;-46
2021/11/22 03:20:13;;;;;;;0.70;0.30;;;21.30;36.20;;;;;;5016642;28;20429;-49
2021/11/22 03:22:39;;;;;;;0.40;0.30;;;21.20;36.10;;;;;;5018789;28;20026;-49
2021/11/22 03:25:07;;;;;;;0.40;0.25;;;21.30;36.20;;;;;;5021179;28;20489;-50
2021/11/22 03:27:35;;;;;;;1.05;0.50;;;21.20;36.10;;;;;;5034272;28;20437;-51
2021/11/22 03:30:03;;;;;;;0.90;0.40;;;21.20;36.10;;;;;;5030043;28;20416;-49
2021/11/22 03:32:28;;;;;;;0.82;0.40;;;21.20;36.10;;;;;;5027989;28;20033;-45
2021/11/22 03:34:55;;;;;;;0.63;0.30;;;21.20;36.10;;;;;;5024639;28;20503;-52
2021/11/22 03:37:21;;;;;;;0.70;0.35;;;21.20;36.00;;;;;;5034434;28;20064;-50
2021/11/22 03:39:50;;;;;;;1.13;0.30;;;21.20;36.00;;;;;;5032193;28;20445;-50
2021/11/22 03:42:17;;;;;;;0.40;0.20;;;21.20;36.00;;;;;;5030307;28;20036;-50
2021/11/22 03:44:44;;;;;;;1.10;0.30;;;21.20;36.00;;;;;;5032190;28;20393;-51
2021/11/22 03:47:11;;;;;;;1.55;0.40;;;21.20;36.00;;;;;;5033993;28;20029;-52
2021/11/22 03:49:37;;;;;;;1.20;0.43;;;21.20;36.00;;;;;;5033374;28;20471;-46
2021/11/22 03:52:04;;;;;;;0.47;0.20;;;21.20;36.00;;;;;;5025707;28;20033;-45
2021/11/22 03:54:30;;;;;;;0.55;0.22;;;21.20;36.00;;;;;;5029786;28;20061;-47
2021/11/22 03:56:56;;;;;;;0.68;0.30;;;21.20;35.90;;;;;;5019845;28;20147;-48
2021/11/22 03:59:22;;;;;;;0.63;0.28;;;21.20;35.90;;;;;;5034575;28;20053;-46
2021/11/22 04:01:47;;;;;;;0.52;0.10;;;21.20;36.00;;;;;;5030425;28;20352;-46
2021/11/22 04:04:13;;;;;;;0.93;0.30;;;21.20;35.90;;;;;;5031650;28;20360;-47
2021/11/22 04:06:39;;;;;;;0.73;0.30;;;21.20;35.90;;;;;;5022050;28;20045;-45
2021/11/22 04:09:06;;;;;;;0.88;0.40;;;21.10;35.90;;;;;;5021484;28;20033;-46
2021/11/22 04:11:35;;;;;;;1.90;0.30;;;21.10;35.80;;;;;;5019894;28;20073;-50
2021/11/22 04:14:05;;;;;;;2.22;0.30;;;21.20;35.90;;;;;;5034556;28;20033;-48
2021/11/22 04:16:31;;;;;;;0.55;0.22;;;21.10;35.80;;;;;;5027558;28;20034;-47
2021/11/22 04:18:57;;;;;;;0.70;0.30;;;21.10;35.80;;;;;;5029183;28;20033;-47
2021/11/22 04:21:25;;;;;;;0.55;0.25;;;21.10;35.80;;;;;;5031106;28;20429;-51
2021/11/22 04:23:54;;;;;;;0.73;0.30;;;21.10;35.70;;;;;;5033657;28;20061;-49
2021/11/22 04:26:19;;;;;;;0.47;0.40;;;21.10;35.70;;;;;;5025237;28;20121;-48
2021/11/22 04:28:46;;;;;;;1.10;0.38;;;21.10;35.70;;;;;;5034492;28;20133;-48
2021/11/22 04:31:13;;;;;;;0.40;0.28;;;21.10;35.70;;;;;;5021227;28;20338;-49
2021/11/22 04:33:40;;;;;;;0.90;0.35;;;21.10;35.70;;;;;;5018255;28;20449;-51
2021/11/22 04:36:07;;;;;;;1.13;0.40;;;21.10;35.70;;;;;;5025348;28;20026;-51
2021/11/22 04:38:34;;;;;;;0.80;0.30;;;21.10;35.70;;;;;;5018345;28;20026;-50
2021/11/22 04:40:59;;;;;;;0.40;0.35;;;21.10;35.70;;;;;;5019491;28;20095;-44
2021/11/22 04:43:26;;;;;;;0.88;0.40;;;21.10;35.70;;;;;;5022508;28;20022;-51
2021/11/22 04:45:51;;;;;;;0.50;0.30;;;21.10;35.70;;;;;;5018191;28;20351;-50
2021/11/22 04:48:17;;;;;;;0.30;0.20;;;21.10;35.70;;;;;;5018105;28;20034;-45
2021/11/22 04:50:43;;;;;;;0.77;0.30;;;21.00;35.60;;;;;;5022216;28;20030;-52
2021/11/22 04:53:09;;;;;;;1.35;0.20;;;21.00;35.60;;;;;;5019550;28;20048;-53
2021/11/22 04:55:35;;;;;;;0.95;0.47;;;21.00;35.60;;;;;;5025323;28;20137;-48
2021/11/22 04:58:01;;;;;;;1.60;0.50;;;21.00;35.60;;;;;;5018423;28;20030;-47
2021/11/22 05:00:27;;;;;;;0.60;0.32;;;21.00;35.60;;;;;;5018364;28;20060;-48
2021/11/22 05:02:53;;;;;;;0.88;0.20;;;21.00;35.60;;;;;;5017721;28;20365;-52
2021/11/22 05:05:20;;;;;;;0.38;0.38;;;21.00;35.50;;;;;;5022666;28;20049;-46
2021/11/22 05:07:47;;;;;;;0.55;0.30;;;21.00;35.60;;;;;;5018303;28;20026;-47
2021/11/22 05:10:14;;;;;;;1.08;0.20;;;21.00;35.50;;;;;;5022690;28;20091;-46
2021/11/22 05:12:39;;;;;;;1.17;0.47;;;21.00;35.50;;;;;;5036110;28;20025;-51
2021/11/22 05:15:07;;;;;;;1.13;0.32;;;21.00;35.50;;;;;;5035291;28;20358;-49
2021/11/22 05:17:34;;;;;;;0.38;0.28;;;21.00;35.50;;;;;;5030240;28;20054;-50
2021/11/22 05:20:03;;;;;;;1.33;0.40;;;21.00;35.50;;;;;;5019442;28;20364;-49
2021/11/22 05:22:29;;;;;;;0.25;0.20;;;21.00;35.50;;;;;;5031240;28;20026;-53
2021/11/22 05:24:55;;;;;;;0.45;0.32;;;21.00;35.50;;;;;;5025569;28;20029;-48
2021/11/22 05:27:25;;;;;;;0.35;0.22;;;21.00;35.50;;;;;;5021152;28;20040;-51
2021/11/22 05:29:51;;;;;;;0.55;0.30;;;21.00;35.40;;;;;;5017478;28;20441;-47
2021/11/22 05:32:18;;;;;;;0.45;0.20;;;21.00;35.40;;;;;;5037954;28;20025;-46
2021/11/22 05:34:46;;;;;;;0.30;0.10;;;21.00;35.40;;;;;;5036027;28;20381;-50
2021/11/22 05:37:12;;;;;;;0.55;0.20;;;21.00;35.40;;;;;;5033094;28;20037;-51
2021/11/22 05:39:38;;;;;;;0.30;0.20;;;20.90;35.30;;;;;;5017247;28;20038;-50
2021/11/22 05:42:05;;;;;;;0.82;0.38;;;20.90;35.30;;;;;;5032281;28;20040;-53
2021/11/22 05:44:34;;;;;;;0.65;0.30;;;20.90;35.30;;;;;;5037092;28;20029;-50
2021/11/22 05:47:02;;;;;;;0.63;0.30;;;20.90;35.90;;;;;;5030417;28;20040;-48
2021/11/22 05:49:31;;;;;;;0.52;0.20;;;20.90;35.30;;;;;;5017105;28;20042;-49
2021/11/22 05:51:57;;;;;;;1.05;0.30;;;20.90;35.30;;;;;;5018263;28;20041;-48
2021/11/22 05:54:24;;;;;;;0.43;0.30;;;20.90;35.30;;;;;;5026277;28;20452;-50
2021/11/22 05:56:51;;;;;;;1.02;0.43;;;20.90;35.30;;;;;;5030905;28;20053;-51
2021/11/22 05:59:18;;;;;;;0.75;0.20;;;20.90;35.30;;;;;;5027365;28;20416;-49
2021/11/22 06:01:43;;;;;;;0.57;0.38;;;21.00;35.30;;;;;;5023529;28;20112;-51
2021/11/22 06:04:09;;;;;;;1.10;0.40;;;20.90;35.90;;;;;;5025788;28;20064;-47
2021/11/22 06:06:36;;;;;;;0.55;0.30;;;20.90;35.20;;;;;;5016556;28;20065;-49
2021/11/22 06:09:02;;;;;;;0.68;0.30;;;20.90;35.20;;;;;;5032598;28;20124;-48
2021/11/22 06:11:28;;;;;;;0.52;0.20;;;20.90;35.20;;;;;;5027259;28;20028;-47
2021/11/22 06:13:53;;;;;;;1.23;0.50;;;20.90;35.20;;;;;;5016274;28;20022;-47
2021/11/22 06:16:19;;;;;;;1.10;0.40;;;20.90;35.20;;;;;;5020390;28;20029;-50
2021/11/22 06:18:45;;;;;;;0.80;0.30;;;20.90;35.20;;;;;;5033348;28;20030;-48
2021/11/22 06:21:11;;;;;;;0.57;0.40;;;20.90;35.20;;;;;;5021434;28;20041;-49
2021/11/22 06:23:36;;;;;;;0.55;0.22;;;20.80;35.20;;;;;;5018819;28;20026;-49
2021/11/22 06:26:02;;;;;;;0.73;0.40;;;20.80;35.10;;;;;;5034438;28;20032;-45
2021/11/22 06:28:28;;;;;;;0.50;0.30;;;20.80;35.10;;;;;;5035456;28;20051;-48
2021/11/22 06:30:54;;;;;;;0.80;0.40;;;20.90;35.10;;;;;;5034315;28;20463;-47
2021/11/22 06:33:20;;;;;;;0.73;0.30;;;20.80;35.10;;;;;;5030294;28;20056;-48
2021/11/22 06:35:46;;;;;;;0.93;0.35;;;20.80;35.10;;;;;;5017088;28;20029;-46
2021/11/22 06:38:12;;;;;;;0.45;0.30;;;20.80;35.00;;;;;;5016991;28;20481;-45
2021/11/22 06:40:38;;;;;;;1.17;0.30;;;20.80;35.00;;;;;;5016628;28;20445;-50
2021/11/22 06:43:05;;;;;;;0.50;0.30;;;20.80;35.00;;;;;;5018321;28;20435;-48
2021/11/22 06:45:31;;;;;;;0.70;0.30;;;20.80;35.00;;;;;;5016165;28;20084;-48
2021/11/22 06:47:58;;;;;;;0.65;0.40;;;20.80;35.00;;;;;;5030040;28;20441;-49
2021/11/22 06:50:24;;;;;;;0.73;0.32;;;20.80;35.00;;;;;;5021739;28;20033;-46
2021/11/22 06:52:50;;;;;;;0.30;0.20;;;20.80;35.00;;;;;;5016890;28;20125;-47
2021/11/22 06:55:18;;;;;;;1.35;0.30;;;20.80;35.00;;;;;;5030790;28;20068;-49
2021/11/22 06:57:44;;;;;;;0.60;0.40;;;20.80;35.00;;;;;;5034105;28;20140;-49
2021/11/22 07:00:13;;;;;;;0.40;0.17;;;20.80;35.00;;;;;;5021407;28;20356;-49
2021/11/22 07:02:39;;;;;;;0.55;0.25;;;20.80;35.00;;;;;;5027090;28;20029;-56
2021/11/22 07:05:06;;;;;;;0.70;0.30;;;20.80;35.00;;;;;;5028370;28;20084;-54
2021/11/22 07:07:33;;;;;;;0.57;0.35;;;20.80;35.10;;;;;;5019429;28;20037;-46
2021/11/22 07:09:59;;;;;;;0.85;0.32;;;20.70;35.00;;;;;;5022792;28;20033;-51
2021/11/22 07:12:25;;;;;;;0.70;0.30;;;20.70;35.00;;;;;;5034707;28;20034;-56
2021/11/22 07:14:53;;;;;;;0.50;0.30;;;20.70;35.00;;;;;;5033689;28;20048;-51
2021/11/22 07:17:19;;;;;;;1.40;0.60;;;20.70;35.00;;;;;;5031105;28;20036;-45
2021/11/22 07:19:44;;;;;;;0.63;0.28;;;20.70;35.00;;;;;;5023573;28;20030;-53
2021/11/22 07:22:11;;;;;;;2.22;0.52;;;20.70;35.00;;;;;;5025297;28;20039;-51
2021/11/22 07:24:39;;;;;;;0.65;0.35;;;20.70;34.90;;;;;;5030326;28;20037;-53
2021/11/22 07:27:07;;;;;;;0.73;0.40;;;20.80;35.00;;;;;;5029279;28;20033;-46
2021/11/22 07:29:33;;;;;;;1.05;0.40;;;20.70;35.60;;;;;;5033469;28;20457;-49
2021/11/22 07:31:59;;;;;;;0.60;0.40;;;20.80;35.00;;;;;;5031903;28;20037;-48
2021/11/22 07:34:25;;;;;;;0.70;0.43;;;20.70;35.00;;;;;;5021244;28;20029;-51
2021/11/22 07:36:51;;;;;;;1.58;0.40;;;20.70;35.00;;;;;;5016483;28;20033;-46
2021/11/22 07:39:17;;;;;;;0.77;0.40;;;20.80;35.10;;;;;;5028247;28;20033;-49
2021/11/22 07:41:44;;;;;;;0.95;0.32;;;20.80;35.10;;;;;;5019900;28;20352;-49
2021/11/22 07:44:12;;;;;;;0.70;0.40;;;20.80;35.00;;;;;;5023378;28;20469;-51
2021/11/22 07:46:39;;;;;;;1.40;0.30;;;20.80;34.90;;;;;;5032137;28;20021;-47
2021/11/22 07:49:05;;;;;;;1.42;0.47;;;20.80;34.90;;;;;;5035915;28;20033;-46
2021/11/22 07:51:32;;;;;;;2.30;0.40;;;20.80;34.80;;;;;;5025451;28;20025;-46
2021/11/22 07:53:59;;;;;;;0.90;0.50;;;20.80;34.70;;;;;;5034484;28;20030;-50
2021/11/22 07:56:30;;;;;;;1.55;0.50;;;20.80;34.60;;;;;;5019945;28;20049;-50
2021/11/22 07:58:57;;;;;;;1.13;0.40;;;20.80;34.60;;;;;;5021163;28;20055;-45
2021/11/22 08:01:25;;;;;;;0.80;0.50;;;20.90;34.60;;;;;;5016128;28;20022;-45
2021/11/22 08:03:52;;;;;;;2.10;0.30;;;21.00;34.50;;;;;;5018722;28;20018;-49
2021/11/22 08:06:19;;;;;;;0.93;0.50;;;21.10;34.30;;;;;;5022572;28;20033;-47
2021/11/22 08:08:45;;;;;;;2.55;0.40;;;21.20;34.20;;;;;;5026542;28;20033;-48
2021/11/22 08:13:41;;;;;;;1.10;0.35;;;21.40;34.00;;;;;;5021386;28;20034;-46
2021/11/22 08:16:08;;;;;;;1.15;0.40;;;21.50;34.00;;;;;;5025236;28;20105;-50
2021/11/22 08:18:36;;;;;;;1.08;0.20;;;21.60;33.90;;;;;;5024278;28;20030;-49
2021/11/22 08:21:04;;;;;;;0.93;0.40;;;21.70;33.90;;;;;;5027843;28;20086;-46
2021/11/22 08:23:30;;;;;;;0.93;0.45;;;21.70;33.70;;;;;;5025827;28;20025;-48
2021/11/22 08:25:56;;;;;;;1.23;0.50;;;21.80;33.60;;;;;;5025161;28;20037;-51
2021/11/22 08:28:24;;;;;;;1.77;0.50;;;21.90;33.60;;;;;;5026710;28;20046;-48
2021/11/22 08:30:50;;;;;;;1.50;0.40;;;21.90;33.50;;;;;;5024758;28;20029;-45
2021/11/22 08:33:17;;;;;;;2.17;0.57;;;22.00;33.60;;;;;;5026599;28;20033;-53
2021/11/22 08:35:47;;;;;;;1.35;0.43;;;22.10;33.50;;;;;;5023584;28;20345;-49
2021/11/22 08:38:12;;;;;;;0.85;0.40;;;22.20;33.50;;;;;;5028308;28;20048;-49
2021/11/22 08:40:41;;;;;;;1.42;0.40;;;22.20;33.40;;;;;;5026411;28;20433;-54
2021/11/22 08:43:09;;;;;;;1.17;0.30;;;22.30;33.40;;;;;;5024133;28;20029;-51
2021/11/22 08:45:37;;;;;;;1.08;0.40;;;22.40;33.30;;;;;;5026957;28;20030;-49
2021/11/22 08:48:03;;;;;;;0.80;0.50;;;22.40;33.20;;;;;;5024989;28;20036;-46
2021/11/22 08:50:28;;;;;;;0.98;0.32;;;22.50;33.20;;;;;;5020326;28;20018;-47
2021/11/22 08:52:54;;;;;;;1.60;0.57;;;22.50;33.10;;;;;;5024048;28;20041;-48
2021/11/22 08:55:20;;;;;;;1.98;0.40;;;22.50;33.10;;;;;;5024932;28;20033;-51
2021/11/22 08:57:48;;;;;;;2.05;0.70;;;22.60;33.00;;;;;;5023992;28;20346;-49
2021/11/22 09:00:21;;;;;;;0.70;0.45;;;22.60;33.00;;;;;;5023454;28;20033;-51
2021/11/22 09:02:47;;;;;;;0.90;0.28;;;22.70;33.00;;;;;;5024147;28;20030;-46
2021/11/22 09:05:12;;;;;;;2.65;0.38;;;22.70;32.90;;;;;;5024569;28;20026;-48
2021/11/22 09:07:38;;;;;;;0.40;0.30;;;22.80;32.90;;;;;;5023679;28;20356;-48
2021/11/22 09:10:05;;;;;;;1.20;0.50;;;22.80;32.90;;;;;;5016937;28;20045;-57
2021/11/22 09:12:34;;;;;;;0.93;0.40;;;22.80;32.80;;;;;;5020235;28;20092;-58
2021/11/22 09:15:01;;;;;;;1.63;0.40;;;22.80;32.50;;;;;;5024869;28;20099;-56
2021/11/22 09:17:27;;;;;;;1.30;0.30;;;22.70;32.50;;;;;;5026353;28;20126;-56
2021/11/22 09:19:54;;;;;;;2.45;0.40;;;22.60;32.40;;;;;;5020476;28;20401;-53
2021/11/22 09:22:20;;;;;;;1.52;0.40;;;22.50;32.50;;;;;;5024140;28;20380;-57
2021/11/22 09:24:46;;;;;;;1.15;0.40;;;22.50;32.60;;;;;;5020392;28;20029;-56
2021/11/22 09:27:12;;;;;;;1.42;0.60;;;22.50;32.70;;;;;;5025976;28;20034;-57
2021/11/22 09:29:38;;;;;;;0.63;0.30;;;22.60;32.80;;;;;;5022178;28;20052;-55
2021/11/22 09:32:05;;;;;;;1.33;0.45;;;22.60;32.80;;;;;;5022854;28;20155;-57
2021/11/22 09:34:31;;;;;;;0.95;0.40;;;22.70;32.80;;;;;;5022314;28;20030;-55
2021/11/22 09:36:56;;;;;;;0.77;0.30;;;22.80;32.80;;;;;;5020924;28;20032;-53
2021/11/22 09:39:23;;;;;;;0.85;0.40;;;22.80;32.80;;;;;;5023226;28;20021;-57
2021/11/22 09:41:50;;;;;;;0.73;0.32;;;22.90;32.80;;;;;;5017822;28;20356;-47
2021/11/22 09:44:20;;;;;;;0.93;0.40;;;22.90;32.80;;;;;;5023681;28;20032;-56
2021/11/22 09:46:48;;;;;;;1.10;0.47;;;22.90;32.90;;;;;;5022551;28;20129;-50
2021/11/22 09:49:13;;;;;;;1.05;0.47;;;22.90;33.00;;;;;;5020279;28;20121;-51
2021/11/22 09:51:39;;;;;;;1.10;0.50;;;23.00;33.20;;;;;;5016846;28;20113;-50
2021/11/22 09:54:05;;;;;;;1.25;0.38;;;23.00;33.20;;;;;;5015862;28;20421;-48
2021/11/22 09:56:32;;;;;;;0.93;0.43;;;23.00;33.20;;;;;;5020006;28;20512;-56
2021/11/22 09:58:59;;;;;;;0.60;0.40;;;23.10;33.30;;;;;;5019202;28;20068;-54
2021/11/22 10:01:29;;;;;;;1.67;0.40;;;23.10;33.30;;;;;;5019368;28;20088;-55
2021/11/22 10:04:14;;;;;;;1.42;0.57;;;23.10;33.30;;;;;;5018826;28;20113;-59
2021/11/22 10:06:56;;;;;;;;;;;23.20;33.40;;;;;;5018064;28;20109;-51
2021/11/22 10:09:34;;;;;;;0.75;0.38;;;23.10;33.50;;;;;;5017713;28;19925;-57
2021/11/22 10:12:04;;;;;;;1.52;0.40;;;23.20;33.60;;;;;;5021095;28;20457;-56
2021/11/22 10:14:52;;;;;;;0.77;0.30;;;23.20;33.60;;;;;;5013660;28;20096;-57
2021/11/22 10:17:26;;;;;;;0.52;0.30;;;23.20;33.60;;;;;;5023053;28;20084;-53
2021/11/22 10:20:08;;;;;;;;;;;23.30;33.70;;;;;;5020962;28;20052;-53
2021/11/22 10:23:08;;;;;;;0.20;0.20;;;23.20;34.40;;;;;;5017445;28;19913;-52
2021/11/22 10:25:38;;;;;;;0.85;0.30;;;23.30;33.80;;;;;;5017164;28;20366;-52
2021/11/22 10:28:19;;;;;;;0.35;0.22;;;23.30;33.90;;;;;;5023838;28;20035;-53
2021/11/22 10:30:54;;;;;;;0.40;0.30;;;23.30;33.90;;;;;;5023985;28;20472;-52
2021/11/22 10:33:23;;;;;;;0.85;0.40;;;23.30;33.90;;;;;;5022692;28;20061;-55
2021/11/22 10:35:53;;;;;;;0.80;0.28;;;23.40;33.90;;;;;;5024605;28;20045;-52
2021/11/22 10:38:29;;;;;;;0.63;0.32;;;23.40;33.80;;;;;;5024938;28;20072;-53
2021/11/22 10:41:10;;;;;;;0.82;0.30;;;23.40;33.80;;;;;;5022897;28;20326;-51
2021/11/22 10:43:35;;;;;;;0.35;0.25;;;23.40;33.70;;;;;;5023741;28;20022;-52
2021/11/22 10:46:08;;;;;;;0.52;0.20;;;23.40;33.70;;;;;;5024213;28;20079;-52
2021/11/22 10:48:34;;;;;;;0.28;0.20;;;23.40;33.60;;;;;;5021866;28;20099;-50
2021/11/22 10:51:27;;;;;;;0.28;0.20;;;23.40;33.60;;;;;;5022989;28;20115;-54
2021/11/22 10:54:05;;;;;;;0.75;0.40;;;23.40;33.40;;;;;;5023984;28;20095;-51
2021/11/22 10:56:38;;;;;;;0.32;0.20;;;23.40;33.40;;;;;;5023296;28;20049;-54
2021/11/22 10:59:08;;;;;;;0.60;0.22;;;23.30;33.40;;;;;;5022355;28;20411;-53
2021/11/22 11:01:54;;;;;;;1.38;0.30;;;23.30;33.40;;;;;;5022964;28;20108;-50
2021/11/22 11:04:30;;;;;;;0.55;0.20;;;23.30;33.30;;;;;;5023512;28;20364;-51
2021/11/22 11:07:06;;;;;;;0.93;0.20;;;23.30;33.30;;;;;;5023045;28;20033;-54
2021/11/22 11:10:00;;;;;;;0.70;0.40;;;23.30;33.20;;;;;;5023338;28;20045;-55
2021/11/22 11:12:26;;;;;;;1.52;0.35;;;23.30;33.10;;;;;;5022884;28;20049;-55
2021/11/22 11:14:54;;;;;;;0.82;0.25;;;23.20;33.10;;;;;;5020840;28;20037;-54
2021/11/22 11:17:32;;;;;;;1.35;0.40;;;23.20;33.00;;;;;;5024978;28;20067;-51
2021/11/22 11:20:07;;;;;;;0.30;0.10;;;23.20;32.90;;;;;;5021758;28;20061;-54
2021/11/22 11:22:33;;;;;;;0.30;0.15;;;23.20;32.90;;;;;;5025934;28;20425;-50
2021/11/22 11:25:00;;;;;;;0.20;0.10;;;23.20;32.90;;;;;;5020550;28;20109;-53
2021/11/22 11:27:27;;;;;;;0.15;0.15;;;23.10;32.80;;;;;;5022133;28;20049;-55
2021/11/22 11:29:53;;;;;;;0.38;0.30;;;23.10;32.80;;;;;;5024354;28;20033;-57
2021/11/22 11:32:19;;;;;;;0.22;0.20;;;23.10;32.80;;;;;;5022505;28;20044;-49
2021/11/22 11:34:51;;;;;;;1.15;0.30;;;23.10;32.80;;;;;;5023108;28;20386;-52
2021/11/22 11:37:30;;;;;;;0.28;0.20;;;23.10;32.80;;;;;;5019655;28;20029;-58
2021/11/22 11:40:05;;;;;;;0.68;0.30;;;23.00;32.70;;;;;;5022610;28;20045;-56
2021/11/22 11:42:42;;;;;;;1.08;0.17;;;23.00;32.70;;;;;;5022495;28;20188;-57
2021/11/22 11:45:20;;;;;;;0.20;0.20;;;23.00;32.70;;;;;;5021896;28;20065;-52
2021/11/22 11:47:56;;;;;;;0.35;0.20;;;22.90;32.60;;;;;;5023668;28;20117;-48
2021/11/22 11:50:33;;;;;;;0.35;0.20;;;22.90;32.70;;;;;;5022709;28;20041;-58
2021/11/22 11:53:03;;;;;;;0.93;0.25;;;22.90;32.70;;;;;;5023478;28;20048;-57
2021/11/22 11:55:29;;;;;;;0.57;0.20;;;22.90;32.60;;;;;;5020362;28;20026;-53
2021/11/22 11:58:24;;;;;;;0.77;0.28;;;22.90;32.90;;;;;;5023466;28;20037;-53
2021/11/22 12:01:13;;;;;;;0.47;0.20;;;22.80;33.30;;;;;;5025112;28;20086;-55
2021/11/22 12:04:04;;;;;;;0.47;0.17;;;22.80;33.70;;;;;;5022670;28;20030;-55
2021/11/22 12:06:51;;;;;;;0.60;0.38;;;22.70;33.90;;;;;;5021488;28;20022;-55
2021/11/22 12:09:33;;;;;;;1.02;0.20;;;22.70;34.10;;;;;;5013467;28;20082;-54
2021/11/22 12:12:08;;;;;;;0.40;0.30;;;22.70;34.30;;;;;;5022244;28;20100;-56
2021/11/22 12:15:03;;;;;;;0.85;0.35;;;22.70;34.40;;;;;;5020891;28;20030;-55
2021/11/22 12:17:35;;;;;;;1.08;0.40;;;22.70;34.50;;;;;;5020686;28;20526;-50
2021/11/22 12:20:05;;;;;;;0.43;0.30;;;22.70;34.60;;;;;;5021877;28;20036;-56
2021/11/22 12:22:40;;;;;;;0.43;0.20;;;22.70;34.70;;;;;;5020941;28;20455;-53
2021/11/22 12:25:08;;;;;;;0.60;0.20;;;22.70;34.70;;;;;;5019784;28;20117;-56
2021/11/22 12:27:35;;;;;;;0.65;0.30;;;22.70;34.70;;;;;;5023326;28;20105;-49
2021/11/22 12:30:27;;;;;;;1.00;0.20;;;22.70;34.70;;;;;;5021978;28;20543;-55
2021/11/22 12:33:14;;;;;;;0.55;0.30;;;22.70;34.60;;;;;;5019938;28;20026;-53
2021/11/22 12:35:40;;;;;;;0.50;0.30;;;22.70;34.70;;;;;;5020180;28;20080;-54
2021/11/22 12:38:19;;;;;;;1.17;0.30;;;22.70;34.70;;;;;;5023953;28;20338;-53
2021/11/22 12:40:47;;;;;;;0.50;0.30;;;22.80;34.80;;;;;;5019654;28;20341;-50
2021/11/22 12:43:14;;;;;;;0.50;0.22;;;22.80;34.80;;;;;;5019673;28;20391;-55
2021/11/22 12:45:57;;;;;;;2.60;0.35;;;22.80;34.80;;;;;;5019362;28;20327;-54
2021/11/22 12:48:32;;;;;;;1.15;0.30;;;22.80;34.70;;;;;;5024444;28;20452;-53
2021/11/22 12:51:01;;;;;;;0.85;0.45;;;22.80;34.70;;;;;;5022213;28;20030;-51
2021/11/22 12:53:28;;;;;;;0.77;0.30;;;22.80;34.80;;;;;;5020726;28;20033;-54
2021/11/22 12:55:55;;;;;;;1.15;0.30;;;22.70;34.80;;;;;;5024068;28;20326;-49
2021/11/22 12:58:32;;;;;;;0.50;0.22;;;22.80;34.80;;;;;;5025148;28;20401;-55